Time;durP1;ratioP1;P1;durP2;ratioP2;P2;SDS_P1;SDS_P2;PMS_P1;PMS_P2;Temp;Humidity;BMP_temperature;BMP_pressure;BME280_temperature;BME280_humidity;BME280_pressure;Samples;Min_cycle;Max_cycle;Signal;HPM_P1;HPM_P2
2022/09/13 00:00:41;;;;;;;13.05;7.85;;;20.20;98.80;;;;;;4970673;28;20034;-74
2022/09/13 00:03:09;;;;;;;9.52;7.90;;;20.10;98.80;;;;;;4967988;28;20170;-72
2022/09/13 00:05:36;;;;;;;9.88;7.38;;;20.10;98.90;;;;;;4969969;28;20090;-73
2022/09/13 00:08:02;;;;;;;10.80;7.68;;;20.10;98.90;;;;;;4965747;28;20042;-69
2022/09/13 00:10:28;;;;;;;10.35;6.90;;;20.10;99.20;;;;;;4970186;28;20476;-72
2022/09/13 00:12:53;;;;;;;8.13;7.28;;;20.10;99.20;;;;;;4967678;28;20038;-72
2022/09/13 00:15:20;;;;;;;15.50;8.07;;;20.10;99.30;;;;;;4966235;28;20027;-74
2022/09/13 00:17:46;;;;;;;9.55;7.47;;;20.00;99.30;;;;;;4962562;28;20498;-73
2022/09/13 00:20:14;;;;;;;7.63;6.57;;;20.00;99.30;;;;;;4964261;28;20102;-73
2022/09/13 00:22:42;;;;;;;11.50;7.20;;;19.90;99.30;;;;;;4971566;28;20026;-74
2022/09/13 00:25:08;;;;;;;13.10;7.18;;;19.90;99.60;;;;;;4971352;28;20058;-73
2022/09/13 00:27:37;;;;;;;10.63;7.10;;;19.90;99.60;;;;;;4964566;28;20424;-74
2022/09/13 00:30:04;;;;;;;10.05;6.93;;;19.80;99.90;;;;;;4967333;28;20026;-73
2022/09/13 00:32:33;;;;;;;12.13;7.20;;;19.90;99.90;;;;;;4968175;28;20023;-74
2022/09/13 00:35:00;;;;;;;9.90;7.80;;;19.90;99.90;;;;;;4964994;28;20487;-71
2022/09/13 00:37:25;;;;;;;12.65;7.95;;;19.90;99.60;;;;;;4964062;28;20023;-75
2022/09/13 00:39:51;;;;;;;9.65;7.45;;;19.90;99.70;;;;;;4964785;28;20045;-73
2022/09/13 00:42:19;;;;;;;10.60;8.10;;;19.90;99.70;;;;;;4962890;28;20101;-75
2022/09/13 00:44:57;;;;;;;10.88;8.57;;;19.80;99.50;;;;;;4968472;28;20459;-75
2022/09/13 00:47:41;;;;;;;14.25;8.13;;;19.90;99.40;;;;;;4970848;28;20037;-74
2022/09/13 00:50:19;;;;;;;9.52;7.70;;;19.90;99.70;;;;;;4970993;28;20035;-73
2022/09/13 00:52:51;;;;;;;12.55;7.65;;;19.80;99.70;;;;;;4963180;28;20449;-73
2022/09/13 00:55:40;;;;;;;10.95;7.43;;;19.80;99.90;;;;;;4964445;28;20026;-73
2022/09/13 00:58:14;;;;;;;9.15;7.72;;;19.80;99.90;;;;;;4960566;28;20456;-73
2022/09/13 01:00:46;;;;;;;10.05;7.55;;;19.80;99.90;;;;;;4968647;28;20031;-76
2022/09/13 01:03:13;;;;;;;8.45;7.55;;;19.80;99.90;;;;;;4967300;28;20093;-76
2022/09/13 01:05:44;;;;;;;18.65;8.32;;;19.80;99.90;;;;;;4966756;28;20023;-73
2022/09/13 01:08:21;;;;;;;11.77;8.13;;;19.80;99.90;;;;;;4978516;28;20137;-73
2022/09/13 01:10:50;;;;;;;10.77;8.18;;;19.80;99.90;;;;;;4973507;28;20050;-74
2022/09/13 01:13:17;;;;;;;10.18;7.88;;;19.70;99.90;;;;;;4974800;28;20050;-75
2022/09/13 01:15:43;;;;;;;11.63;7.70;;;19.70;99.90;;;;;;4973944;28;20110;-75
2022/09/13 01:18:10;;;;;;;11.38;7.97;;;19.80;99.90;;;;;;4972809;28;20030;-80
2022/09/13 01:21:24;;;;;;;11.98;8.60;;;19.70;99.90;;;;;;4972464;28;20037;-76
2022/09/13 01:24:02;;;;;;;11.10;8.18;;;19.80;99.90;;;;;;4977466;28;20046;-74
2022/09/13 01:26:46;;;;;;;15.70;8.60;;;19.80;99.90;;;;;;4972125;28;20062;-74
2022/09/13 01:29:24;;;;;;;13.20;8.68;;;19.80;99.90;;;;;;4965333;28;20046;-74
2022/09/13 01:32:04;;;;;;;14.75;8.70;;;19.80;99.90;;;;;;4963853;28;20023;-72
2022/09/13 01:34:38;;;;;;;14.68;8.10;;;19.80;99.90;;;;;;4968410;28;20034;-73
2022/09/13 01:37:20;;;;;;;11.63;8.32;;;19.80;99.90;;;;;;4962245;28;20455;-75
2022/09/13 01:39:58;;;;;;;10.70;9.02;;;19.80;99.90;;;;;;4963911;28;20031;-73
2022/09/13 01:42:41;;;;;;;10.20;7.65;;;19.90;99.90;;;;;;4966729;28;20037;-72
2022/09/13 01:45:22;;;;;;;15.50;7.75;;;19.90;99.90;;;;;;4965284;28;20461;-74
2022/09/13 01:48:05;;;;;;;11.65;8.23;;;19.90;99.90;;;;;;4960754;28;20062;-73
2022/09/13 01:50:30;;;;;;;13.88;7.97;;;19.90;99.90;;;;;;4964692;28;20047;-74
2022/09/13 01:53:03;;;;;;;10.50;7.93;;;19.90;99.90;;;;;;4967759;28;20911;-73
2022/09/13 01:55:29;;;;;;;16.63;8.10;;;19.80;99.90;;;;;;4962661;28;20456;-73
2022/09/13 01:58:07;;;;;;;11.23;8.90;;;19.80;99.90;;;;;;4969052;28;20031;-75
2022/09/13 02:00:43;;;;;;;10.43;8.77;;;19.80;99.90;;;;;;4965703;28;20027;-71
2022/09/13 02:03:32;;;;;;;15.32;8.80;;;19.80;99.90;;;;;;4962335;28;20019;-73
2022/09/13 02:06:04;;;;;;;12.07;8.48;;;19.80;99.90;;;;;;4963772;28;20031;-73
2022/09/13 02:09:04;;;;;;;11.13;8.52;;;19.80;99.90;;;;;;4964021;28;20034;-75
2022/09/13 02:11:31;;;;;;;11.77;9.05;;;19.80;99.90;;;;;;4968113;28;20089;-73
2022/09/13 02:14:10;;;;;;;10.70;8.85;;;19.80;99.90;;;;;;4962776;28;20045;-72
2022/09/13 02:16:38;;;;;;;10.13;8.85;;;19.80;99.90;;;;;;4965130;28;20027;-73
2022/09/13 02:19:12;;;;;;;12.45;9.73;;;19.70;99.90;;;;;;4964113;28;20102;-73
2022/09/13 02:21:45;;;;;;;13.70;9.60;;;19.60;99.90;;;;;;4958802;28;20031;-73
2022/09/13 02:24:26;;;;;;;14.73;9.13;;;19.70;99.90;;;;;;4963776;28;20126;-72
2022/09/13 02:26:56;;;;;;;12.25;9.10;;;19.60;99.90;;;;;;4962668;28;20034;-73
2022/09/13 02:29:27;;;;;;;12.23;8.93;;;19.60;99.90;;;;;;4964145;28;20063;-73
2022/09/13 02:32:08;;;;;;;13.73;9.98;;;19.60;99.90;;;;;;4962162;28;20019;-74
2022/09/13 02:35:07;;;;;;;14.43;9.80;;;19.60;99.90;;;;;;4962592;28;20039;-72
2022/09/13 02:37:37;;;;;;;11.30;9.57;;;19.60;99.90;;;;;;4962673;28;20023;-73
2022/09/13 02:40:09;;;;;;;14.88;9.13;;;19.60;99.90;;;;;;4964751;28;20042;-74
2022/09/13 02:42:40;;;;;;;18.83;10.13;;;19.60;99.90;;;;;;4971395;28;20019;-73
2022/09/13 02:45:06;;;;;;;16.27;9.85;;;19.60;99.90;;;;;;4965463;28;20024;-74
2022/09/13 02:47:57;;;;;;;11.90;9.63;;;19.60;99.90;;;;;;4964650;28;20019;-73
2022/09/13 02:50:47;;;;;;;16.13;9.93;;;19.60;99.90;;;;;;4967274;28;20783;-73
2022/09/13 02:53:18;;;;;;;17.48;10.45;;;19.60;99.90;;;;;;4969068;28;20507;-74
2022/09/13 02:56:09;;;;;;;12.07;10.00;;;19.70;99.90;;;;;;4966588;28;20038;-73
2022/09/13 02:58:59;;;;;;;17.02;9.95;;;19.70;99.90;;;;;;4966379;28;20031;-73
2022/09/13 03:01:25;;;;;;;16.50;9.68;;;19.80;99.90;;;;;;4968058;28;20027;-73
2022/09/13 03:03:53;;;;;;;13.55;9.65;;;19.80;99.90;;;;;;4966448;28;20049;-72
2022/09/13 03:06:27;;;;;;;16.30;9.73;;;19.80;99.90;;;;;;4967682;28;20142;-71
2022/09/13 03:08:55;;;;;;;16.27;9.48;;;19.80;99.90;;;;;;4971617;28;20030;-74
2022/09/13 03:11:46;;;;;;;11.77;8.43;;;19.80;99.90;;;;;;4963310;28;20454;-72
2022/09/13 03:14:26;;;;;;;14.75;8.73;;;19.80;99.90;;;;;;4962397;28;20046;-70
2022/09/13 03:17:26;;;;;;;10.50;8.60;;;19.80;99.90;;;;;;4964512;28;20484;-73
2022/09/13 03:20:03;;;;;;;13.50;8.88;;;19.80;99.90;;;;;;4948711;28;20051;-74
2022/09/13 03:22:57;;;;;;;18.17;9.25;;;19.70;99.90;;;;;;4965561;28;20043;-74
2022/09/13 03:25:38;;;;;;;12.45;8.50;;;19.70;99.90;;;;;;4966935;28;20031;-74
2022/09/13 03:28:18;;;;;;;13.55;9.25;;;19.60;99.90;;;;;;4965828;28;20023;-74
2022/09/13 03:30:54;;;;;;;9.60;8.60;;;19.60;99.90;;;;;;4966709;28;20022;-73
2022/09/13 03:33:37;;;;;;;12.38;9.23;;;19.60;99.90;;;;;;4966240;28;20452;-73
2022/09/13 03:36:24;;;;;;;17.20;9.30;;;19.50;99.90;;;;;;4966537;28;20032;-73
2022/09/13 03:39:07;;;;;;;12.73;9.15;;;19.40;99.90;;;;;;4964642;28;20046;-74
2022/09/13 03:41:38;;;;;;;11.32;8.93;;;19.40;99.90;;;;;;4968230;28;20045;-73
2022/09/13 03:44:12;;;;;;;12.25;9.10;;;19.30;99.90;;;;;;4966883;28;20609;-73
2022/09/13 03:46:45;;;;;;;11.15;8.68;;;19.30;99.90;;;;;;4966817;28;20524;-73
2022/09/13 03:49:16;;;;;;;10.65;8.48;;;19.40;99.90;;;;;;4966682;28;20086;-73
2022/09/13 03:51:45;;;;;;;10.23;8.10;;;19.30;99.90;;;;;;4965524;28;20495;-73
2022/09/13 03:54:30;;;;;;;10.32;8.50;;;19.30;99.90;;;;;;4969354;28;20023;-74
2022/09/13 03:57:08;;;;;;;13.35;8.82;;;19.30;99.90;;;;;;4963914;28;20053;-73
2022/09/13 03:59:35;;;;;;;11.90;8.18;;;19.30;99.90;;;;;;4981357;28;20467;-75
2022/09/13 04:02:03;;;;;;;14.63;8.27;;;19.40;99.90;;;;;;4964410;28;20099;-74
2022/09/13 04:04:28;;;;;;;11.73;9.07;;;19.40;99.90;;;;;;4965661;28;20070;-71
2022/09/13 04:06:55;;;;;;;14.88;7.95;;;19.40;99.90;;;;;;4966868;28;20480;-73
2022/09/13 04:09:26;;;;;;;18.67;8.43;;;19.40;99.90;;;;;;4967504;28;20019;-73
2022/09/13 04:11:51;;;;;;;9.15;7.90;;;19.40;99.90;;;;;;4963973;28;20150;-74
2022/09/13 04:14:20;;;;;;;11.68;8.02;;;19.40;99.90;;;;;;4969643;28;20102;-72
2022/09/13 04:16:46;;;;;;;11.60;8.68;;;19.40;99.90;;;;;;4965551;28;20027;-73
2022/09/13 04:19:11;;;;;;;9.82;7.95;;;19.40;99.90;;;;;;4966864;28;20686;-74
2022/09/13 04:21:37;;;;;;;10.93;8.13;;;19.50;99.90;;;;;;4967518;28;20431;-75
2022/09/13 04:24:05;;;;;;;11.18;8.18;;;19.50;99.90;;;;;;4964134;28;20030;-73
2022/09/13 04:26:33;;;;;;;12.20;7.25;;;19.50;99.90;;;;;;4973940;28;20030;-73
2022/09/13 04:28:59;;;;;;;11.98;8.00;;;19.50;99.90;;;;;;4968578;28;20031;-73
2022/09/13 04:31:25;;;;;;;9.13;7.68;;;19.50;99.90;;;;;;4967230;28;20086;-76
2022/09/13 04:33:53;;;;;;;12.13;7.60;;;19.60;99.90;;;;;;4962117;28;20436;-74
2022/09/13 04:36:19;;;;;;;15.10;8.52;;;19.60;99.90;;;;;;4964744;28;20070;-72
2022/09/13 04:38:46;;;;;;;13.10;7.43;;;19.60;99.90;;;;;;4964662;28;20025;-72
2022/09/13 04:41:12;;;;;;;11.80;7.43;;;19.60;99.90;;;;;;4966458;28;20027;-74
2022/09/13 04:43:38;;;;;;;10.65;7.50;;;19.60;99.90;;;;;;4968797;28;20180;-71
2022/09/13 04:46:04;;;;;;;12.55;7.85;;;19.60;99.90;;;;;;4967707;28;20128;-73
2022/09/13 04:48:29;;;;;;;10.60;7.20;;;19.70;99.90;;;;;;4966452;28;20027;-74
2022/09/13 04:51:03;;;;;;;12.13;7.75;;;19.60;99.90;;;;;;4970827;28;20024;-75
2022/09/13 04:53:30;;;;;;;10.40;7.53;;;19.70;99.90;;;;;;4964694;28;20039;-74
2022/09/13 04:56:03;;;;;;;16.63;8.18;;;19.60;99.90;;;;;;4968090;28;20049;-74
2022/09/13 04:58:32;;;;;;;9.93;7.93;;;19.60;99.90;;;;;;4962533;28;20118;-75
2022/09/13 05:01:02;;;;;;;11.18;7.65;;;19.60;99.90;;;;;;4964064;28;20126;-71
2022/09/13 05:03:32;;;;;;;11.07;9.10;;;19.60;99.90;;;;;;4961939;28;20055;-72
2022/09/13 05:06:09;;;;;;;14.80;7.85;;;19.60;99.90;;;;;;4960787;28;20042;-73
2022/09/13 05:08:36;;;;;;;13.35;7.93;;;19.70;99.90;;;;;;4962852;28;20039;-73
2022/09/13 05:11:06;;;;;;;15.00;8.00;;;19.70;99.90;;;;;;4966297;28;20037;-74
2022/09/13 05:13:32;;;;;;;8.85;7.95;;;19.70;99.90;;;;;;4969365;28;20050;-77
2022/09/13 05:16:05;;;;;;;9.40;8.07;;;19.80;99.90;;;;;;4980366;28;20027;-76
2022/09/13 05:18:33;;;;;;;9.05;8.13;;;19.80;99.90;;;;;;4976460;28;20154;-78
2022/09/13 05:21:01;;;;;;;11.30;8.23;;;19.70;99.90;;;;;;4965449;28;20094;-77
2022/09/13 05:23:29;;;;;;;12.90;8.45;;;19.70;99.90;;;;;;4960704;28;20023;-76
2022/09/13 05:25:55;;;;;;;17.40;8.60;;;19.70;99.90;;;;;;4971229;28;20033;-75
2022/09/13 05:28:21;;;;;;;13.57;8.70;;;19.80;99.90;;;;;;4974865;28;20030;-76
2022/09/13 05:30:57;;;;;;;12.95;8.00;;;19.70;99.90;;;;;;4963394;28;20042;-73
2022/09/13 05:33:27;;;;;;;11.38;8.27;;;19.70;99.90;;;;;;4962328;28;20754;-72
2022/09/13 05:35:54;;;;;;;11.68;8.38;;;19.60;99.90;;;;;;4965746;28;20037;-73
2022/09/13 05:38:20;;;;;;;13.50;8.57;;;19.50;99.90;;;;;;4959320;28;20039;-76
2022/09/13 05:40:46;;;;;;;12.82;7.90;;;19.40;99.90;;;;;;4968657;28;20077;-76
2022/09/13 05:43:13;;;;;;;14.07;9.43;;;19.30;99.90;;;;;;4968620;28;20035;-75
2022/09/13 05:45:39;;;;;;;11.60;9.60;;;19.30;99.90;;;;;;4964876;28;20018;-76
2022/09/13 05:48:05;;;;;;;15.48;8.43;;;19.40;99.90;;;;;;4959864;28;20031;-75
2022/09/13 05:50:31;;;;;;;12.13;9.00;;;19.40;99.90;;;;;;4967027;28;20041;-75
2022/09/13 05:52:56;;;;;;;13.30;8.68;;;19.40;99.90;;;;;;4969251;28;20556;-75
2022/09/13 05:55:26;;;;;;;12.70;8.60;;;19.40;99.90;;;;;;4961800;28;20031;-76
2022/09/13 05:57:51;;;;;;;9.77;7.82;;;19.40;99.90;;;;;;4963005;28;20412;-75
2022/09/13 06:00:17;;;;;;;14.23;8.32;;;19.40;99.90;;;;;;4958611;28;20065;-76
2022/09/13 06:02:43;;;;;;;14.88;8.40;;;19.40;99.90;;;;;;4970523;28;20067;-76
2022/09/13 06:05:12;;;;;;;9.68;7.95;;;19.50;99.90;;;;;;4958325;28;20058;-76
2022/09/13 06:07:41;;;;;;;14.25;7.65;;;19.60;99.90;;;;;;4969508;28;20030;-75
2022/09/13 06:10:08;;;;;;;8.70;7.53;;;19.70;99.90;;;;;;4961020;28;20031;-77
2022/09/13 06:12:34;;;;;;;10.40;7.40;;;19.70;99.90;;;;;;4958624;28;20491;-77
2022/09/13 06:15:02;;;;;;;8.63;7.47;;;19.80;99.90;;;;;;4960851;28;20038;-76
2022/09/13 06:17:28;;;;;;;12.07;7.68;;;19.80;99.90;;;;;;4962101;28;20031;-75
2022/09/13 06:19:55;;;;;;;9.45;7.18;;;19.90;99.90;;;;;;4963147;28;20027;-75
2022/09/13 06:22:21;;;;;;;16.48;9.15;;;20.00;99.90;;;;;;4958502;28;20016;-76
2022/09/13 06:24:49;;;;;;;16.77;9.27;;;20.00;99.90;;;;;;4970378;28;20452;-76
2022/09/13 06:27:15;;;;;;;20.95;11.45;;;20.20;99.90;;;;;;4961125;28;20034;-76
2022/09/13 06:29:40;;;;;;;19.95;11.20;;;20.20;99.90;;;;;;4967267;28;20479;-75
2022/09/13 06:32:08;;;;;;;17.80;11.23;;;20.30;99.90;;;;;;4966036;28;20444;-75
2022/09/13 06:34:34;;;;;;;18.40;10.65;;;20.40;99.90;;;;;;4961300;28;20097;-76
2022/09/13 06:37:02;;;;;;;16.02;10.02;;;20.40;99.90;;;;;;4960519;28;20038;-76
2022/09/13 06:39:31;;;;;;;18.15;9.35;;;20.50;99.90;;;;;;4961121;28;20114;-77
2022/09/13 06:41:56;;;;;;;14.07;8.95;;;20.50;99.90;;;;;;4967379;28;20027;-75
2022/09/13 06:44:22;;;;;;;12.43;10.45;;;20.60;99.90;;;;;;4955156;28;20437;-76
2022/09/13 06:46:48;;;;;;;13.20;9.05;;;20.70;99.90;;;;;;4958145;28;20468;-76
2022/09/13 06:49:13;;;;;;;12.35;9.15;;;20.70;99.90;;;;;;4961896;28;20027;-75
2022/09/13 06:51:39;;;;;;;14.50;8.57;;;20.80;99.90;;;;;;4961101;28;20153;-77
2022/09/13 06:54:04;;;;;;;11.90;8.68;;;20.80;99.90;;;;;;4968016;28;20027;-77
2022/09/13 06:56:38;;;;;;;16.13;9.20;;;20.80;99.90;;;;;;4966492;28;20369;-77
2022/09/13 06:59:07;;;;;;;13.27;9.50;;;20.90;99.90;;;;;;4961865;28;20035;-75
2022/09/13 07:01:40;;;;;;;12.75;9.02;;;20.90;99.90;;;;;;4965008;28;20043;-77
2022/09/13 07:04:07;;;;;;;;;;;21.00;99.90;;;;;;4978355;28;20338;-76
2022/09/13 07:06:36;;;;;;;11.60;9.85;;;21.10;99.90;;;;;;4961963;28;19910;-76
2022/09/13 07:09:04;;;;;;;16.20;9.75;;;21.10;99.90;;;;;;4963234;28;20027;-75
2022/09/13 07:11:34;;;;;;;12.48;9.65;;;21.20;99.90;;;;;;4964262;28;20070;-76
2022/09/13 07:14:00;;;;;;;13.77;9.95;;;21.40;99.90;;;;;;4957924;28;20452;-76
2022/09/13 07:16:31;;;;;;;12.32;10.38;;;21.50;99.90;;;;;;4966825;28;20380;-76
2022/09/13 07:18:59;;;;;;;14.52;11.00;;;21.50;99.90;;;;;;4965805;28;20086;-76
2022/09/13 07:21:28;;;;;;;19.67;12.27;;;21.50;99.90;;;;;;4959770;28;20015;-76
2022/09/13 07:23:55;;;;;;;15.50;11.27;;;21.50;99.90;;;;;;4956827;28;20030;-77
2022/09/13 07:26:21;;;;;;;16.00;12.07;;;21.60;99.90;;;;;;4958930;28;20034;-76
2022/09/13 07:28:49;;;;;;;16.95;12.23;;;21.60;99.90;;;;;;4963859;28;20109;-75
2022/09/13 07:31:15;;;;;;;23.48;13.52;;;21.70;99.90;;;;;;4971445;28;20039;-76
2022/09/13 07:33:42;;;;;;;18.85;13.02;;;21.70;99.90;;;;;;4966881;28;20110;-75
2022/09/13 07:36:11;;;;;;;18.70;12.77;;;21.80;99.80;;;;;;4971799;28;20031;-76
2022/09/13 07:38:39;;;;;;;20.58;14.23;;;22.10;99.90;;;;;;4962539;28;20037;-75
2022/09/13 07:41:07;;;;;;;21.88;12.85;;;22.10;99.00;;;;;;4971136;28;20431;-77
2022/09/13 07:43:38;;;;;;;25.38;14.35;;;22.30;98.80;;;;;;4963857;28;20023;-76
2022/09/13 07:46:09;;;;;;;19.83;14.90;;;22.30;98.60;;;;;;4961445;28;20030;-76
2022/09/13 07:48:37;;;;;;;20.27;14.20;;;22.40;98.80;;;;;;4964904;28;20077;-77
2022/09/13 07:51:20;;;;;;;21.15;15.75;;;22.50;98.20;;;;;;4961697;28;20034;-76
2022/09/13 07:53:48;;;;;;;22.17;15.13;;;22.60;97.90;;;;;;4965830;28;20027;-76
2022/09/13 07:56:16;;;;;;;21.52;15.75;;;22.70;97.60;;;;;;4969871;28;20027;-76
2022/09/13 07:58:43;;;;;;;24.73;16.17;;;23.00;97.90;;;;;;4963499;28;20057;-76
2022/09/13 08:01:27;;;;;;;27.77;16.17;;;23.00;97.10;;;;;;4962690;28;20031;-76
2022/09/13 08:03:58;;;;;;;22.70;16.73;;;23.20;97.10;;;;;;4960696;28;20018;-76
2022/09/13 08:06:26;;;;;;;26.25;17.15;;;23.40;97.10;;;;;;4966658;28;20039;-76
2022/09/13 08:08:56;;;;;;;24.95;16.73;;;23.50;96.00;;;;;;4965364;28;20031;-75
2022/09/13 08:11:31;;;;;;;27.17;17.95;;;23.50;95.80;;;;;;4963336;28;20059;-76
2022/09/13 08:13:57;;;;;;;27.85;18.63;;;23.50;95.90;;;;;;4964951;28;20045;-77
2022/09/13 08:16:28;;;;;;;32.97;17.40;;;23.60;96.60;;;;;;4961274;28;20658;-76
2022/09/13 08:18:56;;;;;;;29.95;18.58;;;23.70;95.80;;;;;;4964443;28;20109;-75
2022/09/13 08:21:23;;;;;;;32.00;20.30;;;23.80;95.40;;;;;;4963025;28;20033;-76
2022/09/13 08:23:49;;;;;;;30.83;19.45;;;23.70;95.50;;;;;;4971052;28;20580;-75
2022/09/13 08:26:16;;;;;;;37.28;20.10;;;23.90;95.60;;;;;;4967885;28;20042;-75
2022/09/13 08:28:42;;;;;;;32.83;19.67;;;24.20;95.40;;;;;;4961918;28;20098;-76
2022/09/13 08:31:07;;;;;;;25.33;19.00;;;24.40;95.10;;;;;;4964633;28;20457;-77
2022/09/13 08:33:33;;;;;;;35.30;19.63;;;24.60;94.90;;;;;;4969805;28;20421;-76
2022/09/13 08:36:00;;;;;;;35.38;20.13;;;24.80;94.30;;;;;;4962168;28;20031;-76
2022/09/13 08:38:25;;;;;;;29.73;20.17;;;24.90;94.20;;;;;;4967752;28;20035;-76
2022/09/13 08:41:04;;;;;;;32.78;20.42;;;24.90;94.70;;;;;;4966925;28;20126;-75
2022/09/13 08:43:42;;;;;;;31.98;21.58;;;25.10;93.90;;;;;;4964971;28;20023;-76
2022/09/13 08:46:18;;;;;;;37.15;22.13;;;25.30;93.50;;;;;;4978592;28;20063;-76
2022/09/13 08:48:48;;;;;;;37.35;22.70;;;25.50;93.30;;;;;;4970275;28;20038;-76
2022/09/13 08:51:26;;;;;;;31.73;21.73;;;25.50;93.70;;;;;;4963171;28;20034;-77
2022/09/13 08:53:52;;;;;;;34.63;22.80;;;25.70;93.50;;;;;;4977010;28;20416;-76
2022/09/13 08:56:21;;;;;;;30.98;21.27;;;26.20;93.60;;;;;;4963775;28;20081;-76
2022/09/13 08:59:05;;;;;;;31.60;20.58;;;26.50;92.40;;;;;;4959654;28;20053;-77
2022/09/13 09:01:46;;;;;;;37.47;22.00;;;26.50;92.10;;;;;;4962754;28;20024;-76
2022/09/13 09:04:18;;;;;;;31.98;22.77;;;26.50;92.00;;;;;;4958519;28;20385;-76
2022/09/13 09:06:43;;;;;;;39.40;23.42;;;26.40;91.60;;;;;;4960565;28;20473;-76
2022/09/13 09:09:15;;;;;;;32.60;22.58;;;26.30;91.80;;;;;;4963355;28;20050;-76
2022/09/13 09:11:43;;;;;;;35.38;23.58;;;26.20;92.60;;;;;;4963418;28;20970;-76
2022/09/13 09:14:32;;;;;;;40.70;22.05;;;26.40;91.60;;;;;;4963239;28;20145;-76
2022/09/13 09:17:00;;;;;;;29.10;18.45;;;26.90;91.70;;;;;;4962459;28;20031;-76
2022/09/13 09:19:36;;;;;;;27.38;18.98;;;27.40;90.70;;;;;;4964474;28;20034;-76
2022/09/13 09:22:08;;;;;;;22.42;16.95;;;27.50;90.30;;;;;;4959384;28;20457;-75
2022/09/13 09:24:37;;;;;;;26.05;17.85;;;27.60;91.20;;;;;;4962669;28;20063;-75
2022/09/13 09:27:14;;;;;;;27.42;18.27;;;27.70;90.10;;;;;;4961652;28;20019;-77
2022/09/13 09:29:43;;;;;;;32.60;22.48;;;28.00;89.80;;;;;;4970473;28;20062;-75
2022/09/13 09:32:30;;;;;;;28.65;19.67;;;28.40;87.10;;;;;;4963409;28;20038;-77
2022/09/13 09:35:04;;;;;;;27.35;19.42;;;28.50;87.30;;;;;;4962218;28;20461;-75
2022/09/13 09:37:34;;;;;;;28.10;19.60;;;28.30;88.30;;;;;;4959189;28;20089;-76
2022/09/13 09:40:08;;;;;;;27.40;17.95;;;28.40;87.50;;;;;;4958000;28;20042;-76
2022/09/13 09:42:46;;;;;;;22.85;16.90;;;28.60;87.90;;;;;;4964627;28;20035;-75
2022/09/13 09:45:22;;;;;;;26.05;17.75;;;28.70;86.90;;;;;;4957556;28;20042;-73
2022/09/13 09:47:50;;;;;;;24.63;16.98;;;28.80;85.20;;;;;;4959695;28;20053;-76
2022/09/13 09:50:22;;;;;;;25.00;17.15;;;28.70;86.20;;;;;;4962564;28;20031;-76
2022/09/13 09:53:08;;;;;;;24.45;16.85;;;28.70;86.90;;;;;;4966683;28;20110;-76
2022/09/13 09:55:50;;;;;;;23.33;17.63;;;28.90;86.20;;;;;;4958042;28;20029;-75
2022/09/13 09:58:17;;;;;;;24.90;17.00;;;29.00;84.40;;;;;;4959641;28;20039;-76
2022/09/13 10:00:55;;;;;;;27.42;17.98;;;29.00;84.00;;;;;;4966750;28;20031;-76
2022/09/13 10:03:32;;;;;;;24.50;17.85;;;28.90;83.90;;;;;;4961961;28;20049;-76
2022/09/13 10:06:17;;;;;;;22.83;17.35;;;28.90;84.10;;;;;;4962636;28;20031;-76
2022/09/13 10:08:55;;;;;;;23.33;16.48;;;28.60;85.30;;;;;;4971752;28;20134;-74
2022/09/13 10:11:21;;;;;;;27.00;18.40;;;28.70;86.80;;;;;;4962452;28;20027;-75
2022/09/13 10:13:59;;;;;;;26.63;16.83;;;29.00;84.60;;;;;;4964152;28;20027;-76
2022/09/13 10:16:27;;;;;;;22.90;16.25;;;29.30;83.50;;;;;;4962080;28;20153;-76
2022/09/13 10:18:52;;;;;;;20.05;14.55;;;29.60;82.60;;;;;;4967281;28;20042;-77
2022/09/13 10:21:18;;;;;;;16.83;14.10;;;29.50;82.90;;;;;;4964131;28;20405;-74
2022/09/13 10:23:52;;;;;;;14.93;12.95;;;29.50;82.60;;;;;;4958836;28;20027;-75
2022/09/13 10:26:23;;;;;;;18.30;13.52;;;29.30;83.40;;;;;;4973523;28;20049;-75
2022/09/13 10:29:12;;;;;;;22.58;15.13;;;29.10;84.50;;;;;;4960133;28;20116;-75
2022/09/13 10:31:43;;;;;;;17.85;13.43;;;28.60;84.50;;;;;;4963298;28;20066;-76
2022/09/13 10:34:34;;;;;;;17.67;13.70;;;28.60;85.40;;;;;;4961204;28;20092;-75
2022/09/13 10:37:05;;;;;;;17.77;13.40;;;28.60;84.70;;;;;;4959967;28;20152;-75
2022/09/13 10:39:35;;;;;;;15.57;13.45;;;28.50;86.00;;;;;;4958254;28;20023;-75
2022/09/13 10:42:09;;;;;;;19.38;13.73;;;28.60;85.90;;;;;;4962350;28;20412;-75
2022/09/13 10:44:44;;;;;;;17.25;12.85;;;28.70;84.80;;;;;;4964322;28;20464;-75
2022/09/13 10:47:17;;;;;;;16.33;12.13;;;29.20;85.10;;;;;;4959545;28;20022;-73
2022/09/13 10:49:53;;;;;;;16.35;12.50;;;29.60;83.10;;;;;;4962219;28;20101;-77
2022/09/13 10:52:40;;;;;;;19.30;13.02;;;29.40;82.50;;;;;;4958859;28;20058;-76
2022/09/13 10:55:17;;;;;;;16.48;12.40;;;29.50;83.50;;;;;;4958594;28;20031;-75
2022/09/13 10:57:44;;;;;;;16.85;11.65;;;29.30;82.50;;;;;;4962171;28;20058;-76
2022/09/13 11:00:21;;;;;;;17.63;11.98;;;29.10;82.90;;;;;;4959180;28;20076;-75
2022/09/13 11:03:21;;;;;;;17.73;12.07;;;28.90;83.10;;;;;;4960075;28;20027;-75
2022/09/13 11:05:58;;;;;;;13.75;11.00;;;28.80;83.30;;;;;;4959848;28;20030;-75
2022/09/13 11:08:29;;;;;;;14.55;11.65;;;29.20;85.50;;;;;;4961893;28;20030;-76
2022/09/13 11:11:07;;;;;;;12.98;10.25;;;29.30;83.00;;;;;;4965238;28;20038;-76
2022/09/13 11:14:01;;;;;;;11.80;9.43;;;29.30;81.90;;;;;;4963083;28;20049;-76
2022/09/13 11:16:45;;;;;;;14.68;10.95;;;29.60;82.60;;;;;;4963040;28;20031;-74
2022/09/13 11:19:32;;;;;;;15.73;10.18;;;29.60;81.90;;;;;;4969697;28;20028;-75
2022/09/13 11:22:29;;;;;;;14.68;10.50;;;29.30;82.70;;;;;;4963986;28;20030;-75
2022/09/13 11:25:19;;;;;;;15.25;9.82;;;29.00;83.10;;;;;;4959819;28;20031;-75
2022/09/13 11:28:03;;;;;;;13.50;9.57;;;29.20;85.20;;;;;;4966553;28;20031;-77
2022/09/13 11:30:40;;;;;;;9.73;8.73;;;29.60;82.30;;;;;;4963782;28;20023;-75
2022/09/13 11:33:48;;;;;;;11.48;10.32;;;30.10;82.80;;;;;;4963035;28;20027;-74
2022/09/13 11:36:42;;;;;;;16.20;11.63;;;30.80;79.90;;;;;;4963520;28;20085;-74
2022/09/13 11:39:17;;;;;;;13.15;11.65;;;31.00;76.70;;;;;;4963853;28;20035;-74
2022/09/13 11:42:09;;;;;;;11.95;10.68;;;31.00;75.50;;;;;;4958588;28;20031;-75
2022/09/13 11:45:22;;;;;;;13.48;10.85;;;31.00;77.60;;;;;;4963693;28;20058;-75
2022/09/13 11:48:03;;;;;;;11.80;9.48;;;31.10;78.60;;;;;;4949862;28;20031;-74
2022/09/13 11:50:38;;;;;;;15.48;8.82;;;31.30;76.20;;;;;;4963256;28;20023;-75
2022/09/13 11:53:19;;;;;;;10.68;9.40;;;31.30;76.40;;;;;;4960526;28;20035;-75
2022/09/13 11:56:19;;;;;;;11.57;9.20;;;30.60;77.00;;;;;;4961418;28;20047;-75
2022/09/13 11:58:50;;;;;;;12.90;10.07;;;30.00;79.30;;;;;;4961099;28;20043;-74
2022/09/13 12:01:40;;;;;;;12.00;10.30;;;29.30;80.90;;;;;;4962728;28;20026;-75
2022/09/13 12:04:21;;;;;;;10.25;9.13;;;28.70;83.00;;;;;;4978059;28;20051;-75
2022/09/13 12:06:58;;;;;;;14.00;9.43;;;28.10;85.30;;;;;;4964610;28;20118;-75
2022/09/13 12:09:35;;;;;;;10.55;9.45;;;28.10;85.60;;;;;;4962996;28;20028;-75
2022/09/13 12:12:08;;;;;;;15.60;9.38;;;28.10;85.50;;;;;;4969662;28;20031;-75
2022/09/13 12:15:15;;;;;;;11.60;9.40;;;28.10;85.90;;;;;;4966216;28;20073;-75
2022/09/13 12:17:44;;;;;;;13.35;10.50;;;27.70;86.20;;;;;;4963119;28;20042;-75
2022/09/13 12:20:31;;;;;;;11.88;10.10;;;27.20;87.60;;;;;;4964228;28;20111;-75
2022/09/13 12:23:00;;;;;;;15.38;9.55;;;27.00;89.00;;;;;;4966100;28;20050;-76
2022/09/13 12:25:38;;;;;;;11.80;10.18;;;26.80;89.90;;;;;;4963047;28;20054;-75
2022/09/13 12:28:51;;;;;;;11.68;10.07;;;26.70;90.00;;;;;;4964477;28;20030;-75
2022/09/13 12:31:24;;;;;;;14.95;9.48;;;26.70;90.00;;;;;;4962431;28;20134;-75
2022/09/13 12:33:50;;;;;;;12.05;9.85;;;26.70;90.20;;;;;;4961254;28;20044;-75
2022/09/13 12:36:25;;;;;;;34.58;12.00;;;27.00;90.00;;;;;;4972127;28;20026;-74
2022/09/13 12:39:20;;;;;;;10.90;9.15;;;27.30;89.90;;;;;;4961551;28;20035;-75
2022/09/13 12:42:04;;;;;;;11.00;9.30;;;27.60;88.80;;;;;;4974952;28;20582;-74
2022/09/13 12:44:58;;;;;;;15.85;10.68;;;28.10;87.20;;;;;;4963606;28;20027;-75
2022/09/13 12:47:29;;;;;;;15.35;9.48;;;29.20;85.30;;;;;;4976801;28;20607;-73
2022/09/13 12:50:10;;;;;;;17.30;10.27;;;30.50;81.70;;;;;;4964096;28;20441;-76
2022/09/13 12:52:46;;;;;;;10.73;9.35;;;31.20;78.10;;;;;;4962892;28;20047;-75
2022/09/13 12:55:25;;;;;;;13.13;9.32;;;31.50;76.60;;;;;;4963627;28;20554;-75
2022/09/13 12:58:15;;;;;;;11.32;10.23;;;31.70;75.10;;;;;;4965023;28;20081;-75
2022/09/13 13:01:06;;;;;;;12.18;8.85;;;31.30;74.30;;;;;;4964000;28;20039;-76
2022/09/13 13:03:45;;;;;;;11.85;9.18;;;30.90;77.00;;;;;;4973901;28;20362;-75
2022/09/13 13:06:35;;;;;;;11.68;9.00;;;31.00;76.00;;;;;;4962019;28;20030;-75